Time;durP1;ratioP1;P1;durP2;ratioP2;P2;SDS_P1;SDS_P2;PMS_P1;PMS_P2;Temp;Humidity;BMP_temperature;BMP_pressure;BME280_temperature;BME280_humidity;BME280_pressure;Samples;Min_cycle;Max_cycle;Signal;HPM_P1;HPM_P2
2023/12/22 00:01:28;;;;;;;;;2.00;1.00;;;;;11.65;77.71;101218.78;5092633;27;45432;-57
2023/12/22 00:03:54;;;;;;;;;2.00;0.00;;;;;11.64;77.30;101209.09;5093302;27;70610;-57
2023/12/22 00:06:19;;;;;;;;;1.67;1.33;;;;;11.65;77.26;101220.59;5059267;28;47101;-57
2023/12/22 00:08:44;;;;;;;;;1.00;1.00;;;;;11.65;77.44;101218.78;5066616;28;68097;-57
2023/12/22 00:11:10;;;;;;;;;6.67;2.00;;;;;11.66;76.96;101217.00;5062017;27;67842;-57
2023/12/22 00:13:35;;;;;;;;;2.67;2.00;;;;;11.64;76.64;101210.88;5058737;28;70578;-58
2023/12/22 00:16:01;;;;;;;;;1.00;1.00;;;;;11.63;76.63;101209.16;5059968;28;45503;-57
2023/12/22 00:18:26;;;;;;;;;7.00;2.00;;;;;11.62;76.69;101207.44;5060281;28;45504;-57
2023/12/22 00:20:52;;;;;;;;;1.00;1.00;;;;;11.55;76.17;101201.50;5059561;28;45364;-58
2023/12/22 00:23:17;;;;;;;;;1.00;1.00;;;;;11.49;76.32;101194.69;5070388;28;45452;-57
2023/12/22 00:25:43;;;;;;;;;2.67;1.00;;;;;11.45;76.07;101201.09;5064509;28;56250;-57
2023/12/22 00:28:09;;;;;;;;;1.00;1.00;;;;;11.38;75.59;101195.22;5057220;28;73291;-57
2023/12/22 00:30:34;;;;;;;;;2.00;0.67;;;;;11.35;76.38;101198.00;5059462;28;46561;-57
2023/12/22 00:32:59;;;;;;;;;3.33;1.67;;;;;11.32;76.11;101181.31;5059804;28;45475;-57
2023/12/22 00:35:25;;;;;;;;;1.33;1.00;;;;;11.28;75.65;101187.69;5063001;28;45219;-57
2023/12/22 00:37:50;;;;;;;;;1.00;0.00;;;;;11.24;75.88;101200.31;5058362;28;73118;-57
2023/12/22 00:40:16;;;;;;;;;2.00;1.00;;;;;11.21;76.17;101201.31;5059578;28;45205;-57
2023/12/22 00:42:41;;;;;;;;;1.00;1.00;;;;;11.17;75.67;101199.75;5062377;28;45573;-57
2023/12/22 00:45:06;;;;;;;;;4.33;1.00;;;;;11.14;75.39;101186.56;5059022;27;59694;-57
2023/12/22 00:47:35;;;;;;;;;3.00;2.00;;;;;11.11;75.59;101181.38;5059529;28;45303;-57
2023/12/22 00:50:00;;;;;;;;;2.00;2.00;;;;;11.07;75.65;101170.00;5061178;28;45509;-57
2023/12/22 00:52:26;;;;;;;;;2.00;0.33;;;;;11.05;75.38;101187.84;5066462;28;45491;-57
2023/12/22 00:54:51;;;;;;;;;1.33;1.00;;;;;11.05;75.25;101193.16;5059875;28;46872;-58
2023/12/22 00:57:17;;;;;;;;;2.00;1.00;;;;;11.06;74.91;101189.56;5069418;28;45323;-57
2023/12/22 00:59:47;;;;;;;;;1.00;1.00;;;;;11.11;75.04;101188.47;5056045;28;45397;-58
2023/12/22 01:02:13;;;;;;;;;2.33;0.33;;;;;11.14;74.90;101188.38;5058256;28;45576;-57
2023/12/22 01:04:38;;;;;;;;;0.00;0.00;;;;;11.15;74.93;101179.44;5057917;28;45581;-57
2023/12/22 01:07:03;;;;;;;;;0.67;0.00;;;;;11.16;74.96;101183.81;5058326;28;64271;-57
2023/12/22 01:09:29;;;;;;;;;2.00;1.00;;;;;11.14;74.92;101193.69;5055654;28;45310;-57
2023/12/22 01:11:54;;;;;;;;;0.00;0.00;;;;;11.12;74.73;101198.22;5057721;28;70828;-57
2023/12/22 01:14:19;;;;;;;;;1.67;1.00;;;;;11.11;75.18;101217.78;5057722;28;69249;-56
2023/12/22 01:16:45;;;;;;;;;4.00;2.00;;;;;11.09;75.14;101221.41;5058195;28;73540;-58
2023/12/22 01:19:10;;;;;;;;;1.00;1.00;;;;;11.07;75.12;101195.78;5091294;27;45496;-57
2023/12/22 01:21:36;;;;;;;;;4.67;1.00;;;;;11.05;75.03;101197.63;5067834;28;45343;-56
2023/12/22 01:24:01;;;;;;;;;1.00;1.00;;;;;11.03;74.83;101204.81;5064198;27;46068;-56
2023/12/22 01:26:27;;;;;;;;;2.67;0.00;;;;;11.02;75.21;101214.59;5060583;28;45374;-57
2023/12/22 01:28:53;;;;;;;;;1.67;1.00;;;;;11.05;75.23;101213.59;5057275;28;45422;-56
2023/12/22 01:31:19;;;;;;;;;6.00;0.33;;;;;11.07;75.19;101209.94;5063309;28;45328;-57
2023/12/22 01:33:44;;;;;;;;;5.00;0.00;;;;;11.12;75.50;101207.06;5068564;27;46168;-57
2023/12/22 01:36:10;;;;;;;;;3.33;1.00;;;;;11.16;75.43;101210.44;5057056;28;70944;-57
2023/12/22 01:38:35;;;;;;;;;2.67;2.00;;;;;11.19;75.45;101210.31;5057941;28;67170;-57
2023/12/22 01:41:00;;;;;;;;;1.00;0.00;;;;;11.22;75.50;101218.16;5063449;28;53462;-57
2023/12/22 01:43:26;;;;;;;;;1.50;1.00;;;;;11.21;75.54;101198.66;5062930;28;47381;-57
2023/12/22 01:45:55;;;;;;;;;1.00;0.00;;;;;11.22;75.70;101183.53;5058588;28;45368;-57
2023/12/22 01:48:23;;;;;;;;;1.00;1.00;;;;;11.21;75.75;101185.34;5054688;28;45339;-57
2023/12/22 01:50:50;;;;;;;;;1.00;1.00;;;;;11.20;75.83;101174.78;5090699;27;45883;-57
2023/12/22 01:53:16;;;;;;;;;0.33;0.33;;;;;11.18;76.24;101187.28;5059691;28;46254;-57
2023/12/22 01:55:41;;;;;;;;;0.67;0.33;;;;;11.15;76.40;101182.97;5057275;28;46680;-57
2023/12/22 01:58:07;;;;;;;;;1.00;1.00;;;;;11.15;76.56;101192.75;5089001;27;68196;-58
2023/12/22 02:00:32;;;;;;;;;4.00;1.00;;;;;11.15;76.76;101198.94;5090196;27;64298;-58
2023/12/22 02:02:58;;;;;;;;;3.00;1.00;;;;;11.17;76.76;101206.84;5059683;28;73074;-57
2023/12/22 02:05:23;;;;;;;;;2.00;2.00;;;;;11.18;76.86;101213.91;5042408;28;72096;-57
2023/12/22 02:07:48;;;;;;;;;5.00;1.00;;;;;11.18;77.23;101219.22;5075853;27;66407;-58
2023/12/22 02:10:14;;;;;;;;;2.00;0.67;;;;;11.17;77.20;101223.72;5075202;27;45518;-58
2023/12/22 02:12:39;;;;;;;;;1.00;0.00;;;;;11.17;77.40;101222.81;5053774;28;69645;-59
2023/12/22 02:15:05;;;;;;;;;3.33;1.00;;;;;11.15;77.54;101227.38;5052844;28;74322;-56
2023/12/22 02:17:36;;;;;;;;;1.00;1.00;;;;;11.13;77.46;101227.41;5057947;28;45536;-56
2023/12/22 02:20:02;;;;;;;;;1.00;1.00;;;;;11.11;77.80;101229.31;5057163;28;45370;-57
2023/12/22 02:22:29;;;;;;;;;1.00;0.00;;;;;11.11;77.76;101239.06;5060335;28;46039;-56
2023/12/22 02:24:54;;;;;;;;;1.67;1.00;;;;;11.11;77.89;101242.63;5059887;28;73286;-58
2023/12/22 02:27:37;;;;;;;;;0.00;0.00;;;;;11.12;78.03;101247.00;5061171;28;66457;-56
2023/12/22 02:30:23;;;;;;;;;3.00;1.00;;;;;11.14;78.13;101244.28;5094176;27;45604;-56
2023/12/22 02:32:51;;;;;;;;;2.67;0.33;;;;;11.12;78.00;101239.03;5059042;28;46325;-57
2023/12/22 02:35:19;;;;;;;;;2.67;0.00;;;;;11.09;78.39;101248.00;5075139;27;45327;-57
2023/12/22 02:37:46;;;;;;;;;1.00;1.00;;;;;11.06;78.10;101239.28;5059639;28;45309;-56
2023/12/22 02:40:12;;;;;;;;;2.00;1.00;;;;;11.03;78.04;101250.94;5064633;28;45387;-57
2023/12/22 02:42:38;;;;;;;;;2.00;2.00;;;;;11.03;78.08;101250.94;5093733;27;46019;-57
2023/12/22 02:45:05;;;;;;;;;2.00;2.00;;;;;11.03;78.06;101258.03;5094001;27;45352;-57
2023/12/22 02:47:32;;;;;;;;;1.67;1.67;;;;;11.02;78.29;101262.53;5060072;28;45482;-57
2023/12/22 02:49:57;;;;;;;;;1.00;1.00;;;;;11.02;78.31;101246.53;5091535;27;45570;-57
2023/12/22 02:52:23;;;;;;;;;3.00;1.00;;;;;11.07;78.28;101247.22;5060513;28;61220;-58
2023/12/22 02:54:48;;;;;;;;;0.67;0.67;;;;;11.09;78.23;101250.69;5061275;28;45366;-58
2023/12/22 02:57:13;;;;;;;;;1.67;1.00;;;;;11.12;78.23;101246.13;5061598;28;45498;-57
2023/12/22 02:59:39;;;;;;;;;2.33;1.33;;;;;11.12;78.00;101243.47;5092631;27;69152;-57
2023/12/22 03:02:04;;;;;;;;;1.00;1.00;;;;;11.11;77.86;101236.41;5057651;28;69986;-57
2023/12/22 03:04:30;;;;;;;;;2.00;1.00;;;;;11.11;77.69;101228.41;5062855;28;45577;-57
2023/12/22 03:06:55;;;;;;;;;0.33;0.33;;;;;11.11;77.80;101228.41;5061230;28;45465;-57
2023/12/22 03:09:21;;;;;;;;;1.00;1.00;;;;;11.10;77.75;101222.25;5061129;28;45273;-56
2023/12/22 03:11:47;;;;;;;;;1.33;1.33;;;;;11.12;78.01;101231.03;5060877;28;46180;-57
2023/12/22 03:14:12;;;;;;;;;0.33;0.00;;;;;11.13;78.01;101229.22;5062723;28;45323;-57
2023/12/22 03:16:37;;;;;;;;;0.67;0.67;;;;;11.15;77.60;101225.56;5061005;28;65142;-57
2023/12/22 03:19:02;;;;;;;;;2.33;1.00;;;;;11.17;77.57;101215.72;5059830;28;45502;-57
2023/12/22 03:21:28;;;;;;;;;1.00;1.00;;;;;11.21;77.46;101219.06;5060982;28;73058;-57
2023/12/22 03:23:53;;;;;;;;;2.67;1.00;;;;;11.21;77.34;101221.75;5060534;28;45340;-57
2023/12/22 03:26:18;;;;;;;;;1.00;1.00;;;;;11.22;77.20;101221.69;5059837;28;69347;-57
2023/12/22 03:28:44;;;;;;;;;4.00;1.00;;;;;11.22;77.04;101219.03;5060142;28;45453;-57
2023/12/22 03:31:09;;;;;;;;;2.33;1.00;;;;;11.21;76.90;101225.28;5058616;28;75859;-57
2023/12/22 03:33:35;;;;;;;;;0.00;0.00;;;;;11.20;76.99;101230.69;5060998;28;53519;-57
2023/12/22 03:36:00;;;;;;;;;2.33;0.00;;;;;11.19;76.84;101220.97;5070209;27;45268;-57
2023/12/22 03:38:25;;;;;;;;;0.33;0.00;;;;;11.19;77.12;101223.63;5061858;28;58562;-57
2023/12/22 03:40:50;;;;;;;;;3.00;1.00;;;;;11.22;77.26;101219.03;5060474;28;72428;-57
2023/12/22 03:43:16;;;;;;;;;1.00;1.00;;;;;11.25;77.28;101212.66;5059463;28;70455;-57
2023/12/22 03:45:41;;;;;;;;;2.00;0.00;;;;;11.25;77.15;101216.22;5060137;28;56183;-56
2023/12/22 03:48:06;;;;;;;;;1.67;0.00;;;;;11.25;77.42;101218.88;5060029;28;52151;-57
2023/12/22 03:50:32;;;;;;;;;1.00;1.00;;;;;11.24;77.44;101211.81;5057934;28;70116;-56
2023/12/22 03:52:57;;;;;;;;;3.00;1.00;;;;;11.23;77.46;101222.56;5059962;28;70644;-56
2023/12/22 03:55:22;;;;;;;;;1.00;1.00;;;;;11.21;77.41;101219.06;5060529;28;48808;-56
2023/12/22 03:57:48;;;;;;;;;2.00;2.00;;;;;11.20;77.50;101215.56;5060335;28;70333;-57
2023/12/22 04:00:14;;;;;;;;;1.00;1.00;;;;;11.19;77.78;101218.31;5060257;28;45817;-56
2023/12/22 04:02:40;;;;;;;;;4.00;1.00;;;;;11.20;77.98;101210.25;5092573;27;45375;-57
2023/12/22 04:05:05;;;;;;;;;1.00;1.00;;;;;11.24;78.10;101217.16;5092964;27;50756;-57
2023/12/22 04:07:31;;;;;;;;;2.00;0.67;;;;;11.31;78.16;101232.84;5065274;28;45300;-56
2023/12/22 04:09:56;;;;;;;;;0.00;0.00;;;;;11.34;78.10;101228.25;5058374;28;67763;-57
2023/12/22 04:12:21;;;;;;;;;1.00;1.00;;;;;11.39;78.13;101233.34;5059726;28;45316;-56
2023/12/22 04:14:47;;;;;;;;;1.00;1.00;;;;;11.43;78.17;101234.94;5063701;28;45499;-57
2023/12/22 04:17:12;;;;;;;;;0.00;0.00;;;;;11.46;78.35;101239.25;5065067;27;46931;-57
2023/12/22 04:19:37;;;;;;;;;2.00;0.33;;;;;11.47;78.46;101228.53;5059587;28;73093;-57
2023/12/22 04:22:03;;;;;;;;;0.67;0.00;;;;;11.49;79.20;101239.13;5059559;28;72421;-57
2023/12/22 04:24:28;;;;;;;;;0.00;0.00;;;;;11.47;80.47;101239.19;5063243;28;51578;-57
2023/12/22 04:26:53;;;;;;;;;0.00;0.00;;;;;11.42;82.09;101233.22;5077348;27;58080;-58
2023/12/22 04:29:19;;;;;;;;;0.33;0.00;;;;;11.38;82.70;101243.16;5058783;28;75464;-57
2023/12/22 04:31:44;;;;;;;;;0.67;0.00;;;;;11.35;83.22;101243.28;5057908;28;65882;-57
2023/12/22 04:34:11;;;;;;;;;0.00;0.00;;;;;11.34;82.67;101238.91;5062417;28;45473;-57
2023/12/22 04:36:36;;;;;;;;;1.00;0.00;;;;;11.31;84.60;101225.72;5038323;28;45475;-57
2023/12/22 04:39:02;;;;;;;;;1.33;0.33;;;;;11.30;84.06;101241.78;5063754;28;46915;-57
2023/12/22 04:41:27;;;;;;;;;1.00;0.00;;;;;11.27;84.18;101236.59;5059245;28;45370;-58
2023/12/22 04:43:52;;;;;;;;;1.33;0.00;;;;;11.23;84.58;101247.38;5058616;28;48155;-57
2023/12/22 04:46:17;;;;;;;;;0.00;0.00;;;;;11.19;84.93;101243.13;5059054;28;69045;-58
2023/12/22 04:48:43;;;;;;;;;0.00;0.00;;;;;11.17;85.40;101229.03;5059756;28;56603;-57
2023/12/22 04:51:08;;;;;;;;;0.00;0.00;;;;;11.16;86.24;101229.06;5057998;28;73346;-57
2023/12/22 04:53:33;;;;;;;;;0.00;0.00;;;;;11.13;86.48;101218.56;5055618;28;68635;-57
2023/12/22 04:55:59;;;;;;;;;0.00;0.00;;;;;11.06;87.02;101216.19;5059108;28;45605;-56
2023/12/22 04:58:24;;;;;;;;;2.67;0.00;;;;;11.03;86.74;101218.13;5059652;28;71396;-57
2023/12/22 05:00:49;;;;;;;;;0.00;0.00;;;;;11.01;86.34;101212.88;5077224;27;70516;-57
2023/12/22 05:03:15;;;;;;;;;0.00;0.00;;;;;10.99;87.16;101209.44;5057315;28;45307;-57
2023/12/22 05:05:41;;;;;;;;;0.00;0.00;;;;;11.01;86.98;101223.50;5057529;28;68126;-56
2023/12/22 05:08:06;;;;;;;;;0.00;0.00;;;;;11.03;87.22;101223.44;5058422;28;47415;-56
2023/12/22 05:10:32;;;;;;;;;0.33;0.00;;;;;11.05;87.30;101226.91;5055349;28;71947;-57
2023/12/22 05:12:57;;;;;;;;;4.00;0.00;;;;;11.05;87.61;101229.56;5065348;28;45621;-56
2023/12/22 05:15:22;;;;;;;;;0.00;0.00;;;;;11.06;87.42;101225.97;5059855;28;64355;-57
2023/12/22 05:17:48;;;;;;;;;0.33;0.00;;;;;11.05;87.49;101230.41;5057604;28;66486;-57
2023/12/22 05:20:14;;;;;;;;;0.00;0.00;;;;;11.05;88.29;101225.09;5058904;28;45300;-57
2023/12/22 05:22:39;;;;;;;;;0.33;0.00;;;;;11.05;88.80;101219.78;5060737;28;45272;-58
2023/12/22 05:25:05;;;;;;;;;0.00;0.00;;;;;11.07;88.72;101222.41;5090888;27;65455;-58
2023/12/22 05:27:31;;;;;;;;;0.00;0.00;;;;;11.06;87.86;101221.50;5059093;28;45314;-57
2023/12/22 05:30:01;;;;;;;;;0.33;0.00;;;;;11.05;88.13;101217.13;5059019;27;45402;-57
2023/12/22 05:32:26;;;;;;;;;0.00;0.00;;;;;11.04;87.90;101218.06;5060790;27;45685;-57
2023/12/22 05:34:52;;;;;;;;;0.00;0.00;;;;;11.03;88.74;101218.13;5057626;28;45575;-58
2023/12/22 05:37:17;;;;;;;;;0.00;0.00;;;;;11.01;88.19;101214.69;5052346;28;65154;-56
2023/12/22 05:39:44;;;;;;;;;1.00;0.00;;;;;11.00;88.11;101207.63;5056162;28;46059;-56
2023/12/22 05:42:10;;;;;;;;;0.00;0.00;;;;;11.00;88.65;101215.59;5056823;28;45494;-56
2023/12/22 05:44:35;;;;;;;;;2.00;0.00;;;;;11.00;88.30;101216.50;5057873;28;45394;-56
2023/12/22 05:47:01;;;;;;;;;0.00;0.00;;;;;11.02;88.44;101211.09;5057801;28;46070;-57
2023/12/22 05:49:26;;;;;;;;;0.33;0.00;;;;;10.99;88.82;101201.44;5056280;28;71097;-57
2023/12/22 05:51:51;;;;;;;;;0.00;0.00;;;;;11.00;88.37;101199.63;5057496;28;45462;-57
2023/12/22 05:54:19;;;;;;;;;2.00;0.00;;;;;10.99;88.27;101211.22;5063427;28;54918;-57
2023/12/22 05:56:44;;;;;;;;;0.00;0.00;;;;;10.95;88.84;101210.50;5058057;28;46322;-57
2023/12/22 05:59:10;;;;;;;;;0.00;0.00;;;;;10.96;88.76;101204.22;5057505;28;45427;-57
2023/12/22 06:01:36;;;;;;;;;0.00;0.00;;;;;10.93;88.62;101213.22;5057117;28;66520;-57
2023/12/22 06:04:02;;;;;;;;;0.33;0.00;;;;;10.96;89.19;101206.88;5056819;28;45523;-57
2023/12/22 06:06:27;;;;;;;;;0.00;0.00;;;;;10.97;89.41;101216.59;5057065;28;46172;-57
2023/12/22 06:08:52;;;;;;;;;0.67;0.00;;;;;10.99;89.36;101220.06;5055414;28;45587;-57
2023/12/22 06:11:18;;;;;;;;;0.67;0.00;;;;;11.01;89.88;101220.84;5057113;28;45677;-58
2023/12/22 06:13:43;;;;;;;;;1.00;0.00;;;;;11.04;89.17;101218.06;5060355;28;58553;-57
2023/12/22 06:16:15;;;;;;;;;2.00;0.00;;;;;11.05;89.58;101221.59;5058693;28;45459;-57
2023/12/22 06:18:41;;;;;;;;;0.00;0.00;;;;;11.06;89.90;101215.34;5086017;27;45503;-57
2023/12/22 06:21:07;;;;;;;;;1.00;0.67;;;;;11.09;90.32;101225.84;5052314;28;45560;-57
2023/12/22 06:23:32;;;;;;;;;1.00;1.00;;;;;11.11;90.63;101233.75;5053790;28;45616;-58
2023/12/22 06:25:57;;;;;;;;;0.00;0.00;;;;;11.12;89.44;101228.38;5049570;28;53122;-58
2023/12/22 06:28:23;;;;;;;;;1.00;0.00;;;;;11.13;89.69;101232.75;5048166;28;72718;-59
2023/12/22 06:30:48;;;;;;;;;0.67;0.67;;;;;11.13;89.65;101240.72;5051133;28;45500;-58
2023/12/22 06:33:14;;;;;;;;;0.00;0.00;;;;;11.11;90.40;101231.09;5052490;28;45270;-58
2023/12/22 06:35:41;;;;;;;;;0.00;0.00;;;;;11.11;89.80;101229.31;5044856;28;45569;-58
2023/12/22 06:38:06;;;;;;;;;0.00;0.00;;;;;11.09;90.24;101233.81;5050786;28;45595;-58
2023/12/22 06:40:34;;;;;;;;;1.33;0.00;;;;;11.11;90.24;101233.75;5050946;28;45388;-58
2023/12/22 06:42:59;;;;;;;;;0.00;0.00;;;;;11.12;90.36;101232.81;5052155;28;45505;-58
2023/12/22 06:45:24;;;;;;;;;0.00;0.00;;;;;11.13;90.09;101221.25;5052108;28;46387;-58
2023/12/22 06:47:50;;;;;;;;;0.00;0.00;;;;;11.14;90.80;101221.16;5051849;28;70071;-58
2023/12/22 06:50:15;;;;;;;;;0.00;0.00;;;;;11.13;90.02;101215.91;5055417;28;61999;-58
2023/12/22 06:52:40;;;;;;;;;0.00;0.00;;;;;11.13;90.26;101221.25;5053476;28;70661;-58
2023/12/22 06:55:06;;;;;;;;;0.00;0.00;;;;;11.14;90.41;101215.84;5053819;28;71684;-58
2023/12/22 06:57:31;;;;;;;;;1.00;0.00;;;;;11.15;90.72;101209.59;5056364;28;45309;-58
2023/12/22 06:59:57;;;;;;;;;0.00;0.00;;;;;11.15;90.36;101214.91;5053078;28;47618;-59
2023/12/22 07:02:22;;;;;;;;;2.67;0.00;;;;;11.16;90.09;101213.09;5058460;28;51509;-58
2023/12/22 07:05:09;;;;;;;;;0.00;0.00;;;;;11.17;90.35;101220.16;5055883;28;75172;-58
2023/12/22 07:07:35;;;;;;;;;0.00;0.00;;;;;11.17;90.90;101220.16;5053278;28;45361;-58
2023/12/22 07:10:00;;;;;;;;;0.00;0.00;;;;;11.16;90.55;101227.28;5058587;28;45541;-58
2023/12/22 07:12:26;;;;;;;;;0.00;0.00;;;;;11.14;90.96;101226.50;5055521;28;61560;-58
2023/12/22 07:14:51;;;;;;;;;1.00;0.00;;;;;11.13;91.03;101224.75;5055814;28;74547;-58
2023/12/22 07:17:16;;;;;;;;;0.00;0.00;;;;;11.11;91.92;101231.97;5055571;28;68683;-58
2023/12/22 07:19:42;;;;;;;;;1.00;0.00;;;;;11.10;92.21;101238.22;5053936;27;45696;-58
2023/12/22 07:22:07;;;;;;;;;0.00;0.00;;;;;11.09;92.48;101244.47;5061256;28;45528;-58
2023/12/22 07:24:32;;;;;;;;;0.33;0.33;;;;;11.09;92.91;101233.81;5056522;28;46146;-58
2023/12/22 07:26:58;;;;;;;;;0.00;0.00;;;;;11.08;92.37;101227.63;5052528;28;68500;-58
2023/12/22 07:29:23;;;;;;;;;1.00;0.00;;;;;11.07;92.19;101222.41;5037636;28;45807;-59
2023/12/22 07:31:48;;;;;;;;;0.00;0.00;;;;;11.07;92.19;101235.69;5055328;28;50681;-57
2023/12/22 07:34:14;;;;;;;;;0.00;0.00;;;;;11.06;92.29;101232.16;5055005;28;66908;-57
2023/12/22 07:36:40;;;;;;;;;0.00;0.00;;;;;11.07;92.55;101241.03;5056452;28;45560;-56
2023/12/22 07:39:06;;;;;;;;;0.00;0.00;;;;;11.09;92.58;101237.38;5055532;28;49599;-56
2023/12/22 07:41:32;;;;;;;;;0.00;0.00;;;;;11.11;92.70;101239.06;5053835;28;45284;-57
2023/12/22 07:43:57;;;;;;;;;0.33;0.33;;;;;11.12;92.99;101244.34;5054159;28;45375;-57
2023/12/22 07:46:23;;;;;;;;;0.00;0.00;;;;;11.13;92.30;101254.03;5057646;28;68771;-56
2023/12/22 07:48:48;;;;;;;;;0.00;0.00;;;;;11.14;92.26;101252.25;5055957;28;45346;-59
2023/12/22 07:51:14;;;;;;;;;0.67;0.67;;;;;11.16;92.70;101259.25;5056467;28;45366;-57
2023/12/22 07:53:39;;;;;;;;;1.00;0.00;;;;;11.17;92.38;101249.44;5056565;28;46479;-57
2023/12/22 07:56:05;;;;;;;;;1.00;1.00;;;;;11.20;92.46;101252.00;5054228;28;46038;-58
2023/12/22 07:58:31;;;;;;;;;0.33;0.00;;;;;11.21;92.12;101245.72;5052997;28;45649;-58
2023/12/22 08:00:58;;;;;;;;;0.00;0.00;;;;;11.22;92.48;101253.66;5054098;28;46172;-57
2023/12/22 08:03:23;;;;;;;;;3.00;0.00;;;;;11.22;92.17;101256.31;5055002;28;47271;-58
2023/12/22 08:05:49;;;;;;;;;0.00;0.00;;;;;11.22;92.47;101268.75;5054634;28;52722;-57
2023/12/22 08:08:15;;;;;;;;;0.00;0.00;;;;;11.23;92.93;101273.13;5054189;28;65502;-58
2023/12/22 08:10:40;;;;;;;;;1.00;0.00;;;;;11.24;93.35;101277.53;5054485;28;45696;-58
2023/12/22 08:13:06;;;;;;;;;0.00;0.00;;;;;11.25;93.33;101288.13;5054381;28;45539;-56
2023/12/22 08:15:32;;;;;;;;;0.00;0.00;;;;;11.28;93.24;101278.25;5053829;28;72391;-58
2023/12/22 08:17:57;;;;;;;;;3.33;0.00;;;;;11.28;92.97;101279.13;5052758;28;45299;-56
2023/12/22 08:20:22;;;;;;;;;0.00;0.00;;;;;11.28;94.01;101296.88;5054037;28;69734;-58
2023/12/22 08:22:49;;;;;;;;;2.67;0.67;;;;;11.27;94.04;101288.03;5054071;28;72641;-57
2023/12/22 08:25:15;;;;;;;;;2.00;0.00;;;;;11.29;93.75;101293.28;5056160;28;45185;-57
2023/12/22 08:27:41;;;;;;;;;0.67;0.00;;;;;11.28;93.84;101284.44;5056167;28;45454;-57
2023/12/22 08:30:08;;;;;;;;;0.00;0.00;;;;;11.31;93.50;101280.78;5091726;27;45527;-57
2023/12/22 08:32:33;;;;;;;;;1.00;1.00;;;;;11.32;93.73;101285.19;5059369;28;46477;-57
2023/12/22 08:34:58;;;;;;;;;1.00;0.00;;;;;11.31;93.56;101278.97;5058013;28;58857;-58
2023/12/22 08:37:24;;;;;;;;;1.00;0.00;;;;;11.34;93.58;101285.97;5059001;28;62866;-56
2023/12/22 08:39:50;;;;;;;;;0.00;0.00;;;;;11.35;93.53;101280.56;5058112;28;68270;-57
2023/12/22 08:42:16;;;;;;;;;0.00;0.00;;;;;11.35;93.90;101287.69;5059244;28;45374;-57
2023/12/22 08:44:42;;;;;;;;;1.00;0.00;;;;;11.35;93.82;101274.38;5096771;27;45499;-54
2023/12/22 08:47:07;;;;;;;;;0.00;0.00;;;;;11.37;93.55;101275.19;5066655;28;45382;-56
2023/12/22 08:49:32;;;;;;;;;0.00;0.00;;;;;11.40;93.22;101283.03;5053355;28;45403;-54
2023/12/22 08:51:58;;;;;;;;;0.00;0.00;;;;;11.42;92.84;101286.50;5061298;28;45647;-55
2023/12/22 08:54:23;;;;;;;;;0.00;0.00;;;;;11.46;92.86;101295.19;5062706;27;57325;-54
2023/12/22 08:56:48;;;;;;;;;0.00;0.00;;;;;11.47;92.76;101294.25;5061217;28;59697;-55
2023/12/22 08:59:14;;;;;;;;;2.33;1.00;;;;;11.48;92.70;101288.00;5065957;28;67045;-55
2023/12/22 09:01:40;;;;;;;;;3.00;0.00;;;;;11.49;92.72;101303.91;5064543;28;46657;-56
2023/12/22 09:04:06;;;;;;;;;0.67;0.00;;;;;11.50;92.48;101288.78;5062406;27;45730;-56
2023/12/22 09:06:31;;;;;;;;;0.00;0.00;;;;;11.52;92.70;101302.91;5059018;28;45477;-56
2023/12/22 09:08:57;;;;;;;;;0.00;0.00;;;;;11.53;92.36;101297.50;5060433;28;45464;-56
2023/12/22 09:11:23;;;;;;;;;0.00;0.00;;;;;11.53;92.29;101305.50;5063152;28;67404;-56
2023/12/22 09:13:48;;;;;;;;;0.00;0.00;;;;;11.54;92.32;101306.38;5054038;27;45649;-55
2023/12/22 09:16:20;;;;;;;;;0.00;0.00;;;;;11.56;91.94;101308.03;5041259;28;45415;-56
2023/12/22 09:18:46;;;;;;;;;1.00;0.00;;;;;11.60;91.52;101306.06;5059260;28;45390;-56
2023/12/22 09:21:11;;;;;;;;;0.00;0.00;;;;;11.64;91.37;101305.03;5063315;28;70638;-57
2023/12/22 09:23:36;;;;;;;;;0.00;0.00;;;;;11.71;91.08;101303.78;5060541;27;71428;-57
2023/12/22 09:26:02;;;;;;;;;0.00;0.00;;;;;11.79;90.73;101305.22;5056834;28;62455;-55
2023/12/22 09:28:27;;;;;;;;;0.67;0.00;;;;;11.88;90.07;101307.47;5056015;28;45513;-56
2023/12/22 09:30:52;;;;;;;;;1.00;0.00;;;;;11.95;89.62;101306.25;5054441;28;45545;-56
2023/12/22 09:33:18;;;;;;;;;2.67;1.00;;;;;12.02;89.39;101304.16;5055586;28;62290;-55
2023/12/22 09:35:44;;;;;;;;;0.00;0.00;;;;;12.05;88.65;101304.88;5057150;28;45346;-55
2023/12/22 09:38:10;;;;;;;;;0.67;0.67;;;;;12.14;88.63;101310.72;5056040;28;52180;-57
2023/12/22 09:40:36;;;;;;;;;1.00;1.00;;;;;12.21;88.19;101320.13;5057180;28;45504;-56
2023/12/22 09:43:02;;;;;;;;;2.00;0.67;;;;;12.25;88.46;101311.03;5058558;28;45521;-56
2023/12/22 09:45:30;;;;;;;;;0.67;0.00;;;;;12.28;88.15;101326.91;5057689;28;45754;-56
2023/12/22 09:47:56;;;;;;;;;0.67;0.00;;;;;12.29;88.08;101325.94;5059075;28;45458;-56
2023/12/22 09:50:22;;;;;;;;;1.67;0.00;;;;;12.26;88.06;101326.13;5057325;28;45461;-56
2023/12/22 09:52:48;;;;;;;;;0.00;0.00;;;;;12.23;87.28;101323.59;5039458;28;45602;-56
2023/12/22 09:55:13;;;;;;;;;0.00;0.00;;;;;12.19;87.43;101324.66;5089176;27;45507;-56
2023/12/22 09:57:39;;;;;;;;;0.00;0.00;;;;;12.18;87.74;101322.97;5056997;28;45539;-57
2023/12/22 10:00:07;;;;;;;;;0.00;0.00;;;;;12.15;87.91;101313.31;5058017;28;45454;-55
2023/12/22 10:02:34;;;;;;;;;1.00;1.00;;;;;12.15;87.55;101312.44;5057483;28;45848;-55
2023/12/22 10:05:01;;;;;;;;;0.00;0.00;;;;;12.11;87.06;101322.41;5038210;28;45489;-56
2023/12/22 10:07:26;;;;;;;;;0.00;0.00;;;;;12.08;87.12;101326.06;5039973;28;45413;-54
2023/12/22 10:09:53;;;;;;;;;2.00;0.00;;;;;12.08;87.23;101330.53;5054413;28;47408;-55
2023/12/22 10:12:19;;;;;;;;;1.00;0.00;;;;;12.08;86.91;101326.06;5055744;28;45875;-55
2023/12/22 10:14:46;;;;;;;;;0.00;0.00;;;;;12.11;87.17;101333.06;5056155;28;45576;-55
2023/12/22 10:17:11;;;;;;;;;0.00;0.00;;;;;12.11;86.88;101324.19;5056811;28;45524;-55
2023/12/22 10:19:38;;;;;;;;;2.00;0.00;;;;;12.14;87.00;101332.06;5037857;28;45445;-55
2023/12/22 10:22:04;;;;;;;;;0.00;0.00;;;;;12.17;86.25;101337.22;5059045;28;45579;-56
2023/12/22 10:24:50;;;;;;;;;1.67;0.33;;;;;12.18;86.65;101341.63;5061140;28;54147;-60
2023/12/22 10:27:21;;;;;;;;;0.00;0.00;;;;;12.21;86.60;101338.81;5061041;28;45438;-56
2023/12/22 10:29:51;;;;;;;;;0.00;0.00;;;;;12.26;86.45;101330.59;5059796;28;46185;-55
2023/12/22 10:32:17;;;;;;;;;2.00;0.67;;;;;12.27;85.63;101327.84;5041842;28;45426;-54
2023/12/22 10:34:43;;;;;;;;;1.00;0.00;;;;;12.29;85.84;101330.44;5061457;28;45436;-56
2023/12/22 10:37:09;;;;;;;;;1.00;0.00;;;;;12.29;85.87;101320.63;5061709;28;45808;-55
2023/12/22 10:39:36;;;;;;;;;1.00;0.00;;;;;12.28;85.68;101329.59;5059213;28;64014;-57
2023/12/22 10:42:02;;;;;;;;;0.33;0.00;;;;;12.26;85.96;101334.09;5058182;28;45414;-55
2023/12/22 10:44:28;;;;;;;;;0.00;0.00;;;;;12.31;86.24;101340.09;5057128;28;45477;-54
2023/12/22 10:46:55;;;;;;;;;0.00;0.00;;;;;12.37;86.38;101339.78;5059804;28;45385;-53
2023/12/22 10:49:21;;;;;;;;;0.00;0.00;;;;;12.38;86.21;101332.66;5059233;28;45449;-52
2023/12/22 10:51:47;;;;;;;;;1.00;0.00;;;;;12.37;86.61;101328.25;5059448;28;45495;-51
2023/12/22 10:54:12;;;;;;;;;0.00;0.00;;;;;12.38;86.52;101328.19;5059426;28;45447;-51
2023/12/22 10:56:39;;;;;;;;;0.00;0.00;;;;;12.37;86.23;101333.56;5059489;28;52533;-54
2023/12/22 10:59:04;;;;;;;;;2.00;0.00;;;;;12.36;86.46;101335.41;5059304;28;45787;-52
2023/12/22 11:01:33;;;;;;;;;0.33;0.33;;;;;12.36;86.75;101324.72;5057905;28;45617;-53
2023/12/22 11:04:01;;;;;;;;;1.00;1.00;;;;;12.35;87.03;101328.31;5058845;28;45496;-52
2023/12/22 11:06:29;;;;;;;;;1.33;0.00;;;;;12.32;87.08;101320.47;5058509;28;45503;-52
2023/12/22 11:08:56;;;;;;;;;0.00;0.00;;;;;12.30;87.44;101311.69;5056655;28;47165;-52
2023/12/22 11:11:33;;;;;;;;;1.00;0.67;;;;;12.32;87.57;101312.47;5058478;28;45745;-53
2023/12/22 11:14:03;;;;;;;;;3.33;0.00;;;;;12.32;87.44;101308.94;5073461;27;45621;-54
2023/12/22 11:16:30;;;;;;;;;4.00;2.67;;;;;12.31;87.79;101307.22;5073007;27;45694;-53
2023/12/22 11:18:56;;;;;;;;;0.00;0.00;;;;;12.28;87.65;101308.25;5058841;28;46371;-54